Time;durP1;ratioP1;P1;durP2;ratioP2;P2;SDS_P1;SDS_P2;PMS_P1;PMS_P2;Temp;Humidity;BMP_temperature;BMP_pressure;BME280_temperature;BME280_humidity;BME280_pressure;Samples;Min_cycle;Max_cycle;Signal;HPM_P1;HPM_P2
2023/02/16 00:00:29;;;;;;;0.90;0.90;;;0.80;70.70;;;0.37;59.95;95853.28;4992926;28;20626;-18
2023/02/16 00:02:57;;;;;;;0.80;0.80;;;0.70;70.70;;;0.35;60.21;95849.97;4992406;28;20182;-18
2023/02/16 00:05:27;;;;;;;0.80;0.80;;;0.70;70.70;;;0.34;61.61;95856.06;4993340;28;20356;-18
2023/02/16 00:07:56;;;;;;;0.70;0.70;;;0.70;71.10;;;0.33;61.19;95837.19;4993395;28;20273;-18
2023/02/16 00:10:27;;;;;;;0.80;0.80;;;0.80;71.30;;;0.37;62.01;95843.75;4992574;28;20201;-18
2023/02/16 00:15:40;;;;;;;0.70;0.70;;;0.70;71.60;;;0.41;61.89;95852.13;4993229;28;20182;-18
2023/02/16 00:18:19;;;;;;;0.90;0.90;;;0.80;71.80;;;0.41;62.63;95841.78;4993257;28;20234;-18
2023/02/16 00:20:48;;;;;;;0.90;0.90;;;0.80;72.10;;;0.43;62.83;95832.19;4992899;28;20188;-18
2023/02/16 00:23:15;;;;;;;0.80;0.80;;;0.80;72.20;;;0.47;62.06;95833.63;4992909;28;20197;-18
2023/02/16 00:25:42;;;;;;;0.70;0.70;;;0.80;71.90;;;0.51;61.27;95836.81;4992229;28;20206;-18
2023/02/16 00:28:17;;;;;;;0.80;0.80;;;0.80;71.70;;;0.47;60.97;95829.28;4993066;28;20194;-18
2023/02/16 00:30:45;;;;;;;0.70;0.70;;;0.90;71.70;;;0.45;61.61;95833.75;4992270;28;20201;-18
2023/02/16 00:33:16;;;;;;;0.90;0.90;;;0.80;71.50;;;0.47;61.06;95844.75;4992788;28;20186;-18
2023/02/16 00:35:44;;;;;;;0.90;0.90;;;0.80;71.40;;;0.45;60.95;95838.06;4992360;28;20182;-18
2023/02/16 00:38:12;;;;;;;0.90;0.90;;;0.80;71.40;;;0.46;60.40;95830.22;4992802;28;20267;-18
2023/02/16 00:40:41;;;;;;;0.90;0.90;;;0.80;72.20;;;0.41;60.53;95834.88;4991900;28;20202;-18
2023/02/16 00:43:27;;;;;;;0.90;0.90;;;0.80;71.20;;;0.40;59.98;95834.97;4992872;28;20228;-18
2023/02/16 00:45:55;;;;;;;0.70;0.70;;;0.70;71.10;;;0.34;60.03;95837.97;4991899;28;20629;-19
2023/02/16 00:48:23;;;;;;;0.82;0.82;;;0.80;71.00;;;0.29;59.80;95836.56;4992761;28;20281;-18
2023/02/16 00:50:52;;;;;;;0.73;0.73;;;0.70;70.90;;;0.26;59.77;95833.38;4991819;28;20198;-18
2023/02/16 00:53:19;;;;;;;0.70;0.70;;;0.70;70.90;;;0.20;59.65;95839.75;4992485;28;20198;-19
2023/02/16 00:55:46;;;;;;;0.90;0.90;;;0.60;70.70;;;0.17;59.69;95833.97;4991708;28;20208;-18
2023/02/16 00:58:23;;;;;;;0.80;0.80;;;0.60;70.70;;;0.10;59.81;95836.97;4975579;28;20251;-18
2023/02/16 01:00:55;;;;;;;0.90;0.90;;;0.60;70.90;;;0.08;60.33;95832.84;4992751;28;20202;-18
2023/02/16 01:03:26;;;;;;;0.70;0.70;;;0.50;70.80;;;0.06;59.86;95835.56;4975542;28;20618;-18
2023/02/16 01:11:06;;;;;;;0.80;0.80;;;0.50;70.90;;;0.07;59.79;95833.78;4992545;28;20246;-18
2023/02/16 01:11:28;;;;;;;0.90;0.90;;;0.40;70.70;;;-0.04;59.80;95829.34;4992952;28;20186;-18
2023/02/16 01:13:56;;;;;;;1.00;1.00;;;0.40;70.70;;;-0.05;59.77;95828.53;4991337;28;20625;-18
2023/02/16 01:16:32;;;;;;;0.90;0.90;;;0.40;70.80;;;-0.06;59.71;95833.78;4992403;28;20194;-18
2023/02/16 01:18:59;;;;;;;0.70;0.70;;;0.40;70.70;;;-0.11;59.72;95818.63;4991509;28;20201;-18
2023/02/16 01:21:26;;;;;;;0.80;0.80;;;0.30;70.70;;;-0.11;59.61;95823.78;4991416;28;20531;-18
2023/02/16 01:23:53;;;;;;;0.80;0.80;;;0.30;70.70;;;-0.14;59.51;95818.00;4991852;28;20222;-18
2023/02/16 01:26:20;;;;;;;0.90;0.90;;;0.30;70.70;;;-0.17;59.81;95817.28;4991744;28;20209;-18
2023/02/16 01:28:48;;;;;;;0.80;0.80;;;0.20;71.60;;;-0.17;59.77;95830.19;4959802;28;20590;-18
2023/02/16 01:31:16;;;;;;;0.90;0.90;;;0.20;70.70;;;-0.20;59.39;95817.47;4991640;28;20538;-18
2023/02/16 01:33:43;;;;;;;0.90;0.90;;;0.20;70.80;;;-0.22;60.21;95821.09;4995402;28;20194;-19
2023/02/16 01:36:26;;;;;;;0.80;0.80;;;0.20;70.80;;;-0.27;60.04;95813.69;4995608;28;20205;-18
2023/02/16 01:38:53;;;;;;;0.90;0.90;;;0.10;70.90;;;-0.27;59.51;95812.84;4995491;28;20202;-18
2023/02/16 01:41:50;;;;;;;0.90;0.90;;;0.10;70.80;;;-0.28;59.44;95811.19;4995805;28;20210;-18
2023/02/16 01:44:23;;;;;;;0.90;0.90;;;0.10;70.80;;;-0.32;59.51;95810.56;4994433;28;20208;-18
2023/02/16 01:47:32;;;;;;;0.90;0.90;;;0.10;70.60;;;-0.39;59.50;95799.00;4978742;28;20255;-18
2023/02/16 01:50:15;;;;;;;0.70;0.70;;;0.00;70.50;;;-0.42;58.96;95801.81;5005382;28;20598;-18
2023/02/16 01:52:49;;;;;;;0.90;0.90;;;0.00;70.50;;;-0.43;59.29;95810.47;4994382;28;20195;-18
2023/02/16 01:55:25;;;;;;;0.82;0.82;;;0.00;70.60;;;-0.44;59.33;95806.22;4994554;28;20200;-18
2023/02/16 01:58:47;;;;;;;0.90;0.90;;;0.00;70.80;;;-0.44;59.14;95803.66;4994450;28;20190;-18
2023/02/16 02:01:38;;;;;;;0.90;0.90;;;-0.10;70.80;;;-0.45;59.56;95796.84;4998541;28;20305;-18
2023/02/16 02:07:52;;;;;;;0.70;0.70;;;0.00;71.20;;;-0.38;61.45;95792.94;4990266;28;20279;-18
2023/02/16 02:10:30;;;;;;;0.70;0.70;;;0.10;71.50;;;-0.32;61.34;95784.78;4978181;28;20255;-18
2023/02/16 02:13:19;;;;;;;0.80;0.80;;;0.10;71.80;;;-0.30;60.82;95776.97;4977958;28;20297;-18
2023/02/16 02:15:47;;;;;;;0.90;0.90;;;0.10;71.80;;;-0.27;60.76;95782.75;4994260;28;20175;-18
2023/02/16 02:18:14;;;;;;;0.70;0.70;;;0.20;71.90;;;-0.23;60.49;95789.34;4993910;28;20241;-18
2023/02/16 02:24:02;;;;;;;0.80;0.80;;;0.20;71.70;;;-0.22;60.22;95787.56;4980384;28;20225;-18
2023/02/16 02:27:31;;;;;;;0.70;0.70;;;0.20;71.50;;;-0.15;60.44;95801.69;4994049;28;20179;-18
2023/02/16 02:30:36;;;;;;;0.80;0.80;;;0.30;71.70;;;-0.15;60.30;95796.53;4993113;28;20201;-18
2023/02/16 02:33:40;;;;;;;0.90;0.90;;;0.30;71.60;;;-0.15;60.76;95791.38;4993674;28;20259;-18
2023/02/16 02:36:44;;;;;;;0.70;0.70;;;0.30;71.70;;;-0.19;61.51;95782.22;4993823;28;20202;-18
2023/02/16 02:39:42;;;;;;;0.90;0.90;;;0.30;71.90;;;-0.19;61.78;95779.66;4977841;28;20271;-18
2023/02/16 02:42:18;;;;;;;0.80;0.80;;;0.30;71.80;;;-0.19;61.02;95780.47;4994231;28;20202;-18
2023/02/16 02:45:13;;;;;;;0.70;0.70;;;0.30;71.90;;;-0.15;61.55;95781.06;4993543;28;20198;-19
2023/02/16 02:47:46;;;;;;;0.90;0.90;;;0.30;71.80;;;-0.15;60.83;95780.25;4977560;28;20625;-18
2023/02/16 02:53:39;;;;;;;0.80;0.80;;;0.30;71.60;;;-0.20;60.44;95771.06;4993344;28;20210;-18
2023/02/16 03:01:55;;;;;;;0.70;0.70;;;0.30;71.50;;;-0.25;60.22;95774.91;4979904;28;20186;-18
2023/02/16 03:04:27;;;;;;;0.90;0.90;;;0.30;71.40;;;-0.25;60.13;95777.47;4994323;28;20179;-18
2023/02/16 03:06:57;;;;;;;0.90;0.90;;;0.30;71.50;;;-0.30;59.94;95776.97;4977145;28;20261;-18
2023/02/16 03:09:24;;;;;;;0.90;0.90;;;0.20;71.30;;;-0.32;60.21;95774.47;4993291;28;20202;-18
2023/02/16 03:14:53;;;;;;;0.70;0.70;;;0.20;71.20;;;-0.42;59.88;95776.84;4993321;28;20193;-18
2023/02/16 03:31:37;;;;;;;0.80;0.80;;;-0.10;70.70;;;-0.68;59.36;95768.28;4993226;28;20299;-18
2023/02/16 03:34:05;;;;;;;0.90;0.90;;;-0.20;70.70;;;-0.73;59.37;95765.16;4977323;28;20530;-18
2023/02/16 03:36:38;;;;;;;0.82;0.82;;;-0.20;70.70;;;-0.77;59.45;95769.69;4993746;28;20284;-18
2023/02/16 03:39:06;;;;;;;0.90;0.90;;;-0.30;70.70;;;-0.82;59.54;95762.28;4993908;28;20507;-18
2023/02/16 03:41:43;;;;;;;0.70;0.70;;;-0.30;70.70;;;-0.86;59.50;95765.16;4993163;28;20194;-18
2023/02/16 03:44:09;;;;;;;0.90;0.90;;;-0.30;70.90;;;-0.89;59.63;95766.19;4992703;28;20174;-18
2023/02/16 03:46:37;;;;;;;0.90;0.90;;;-0.30;70.90;;;-0.92;59.45;95757.84;4993596;28;20271;-18
2023/02/16 03:49:04;;;;;;;0.82;0.82;;;-0.40;70.80;;;-0.93;59.60;95767.31;4993591;28;20640;-18
2023/02/16 03:51:31;;;;;;;0.90;0.90;;;-0.40;70.90;;;-0.94;59.67;95768.25;4993792;28;20508;-18
2023/02/16 03:53:58;;;;;;;0.90;0.90;;;-0.40;71.00;;;-0.97;59.88;95779.56;4992284;28;20206;-18
2023/02/16 03:56:25;;;;;;;0.90;0.90;;;-0.40;71.10;;;-0.99;59.76;95775.44;4993007;28;20199;-18
2023/02/16 03:58:52;;;;;;;0.90;0.90;;;-0.50;71.10;;;-0.99;59.90;95780.56;4993636;28;20234;-18
2023/02/16 04:01:19;;;;;;;0.80;0.80;;;-0.50;71.10;;;-0.98;59.67;95782.22;4976692;28;20266;-18
2023/02/16 04:03:46;;;;;;;0.80;0.80;;;-0.50;71.00;;;-1.03;59.62;95779.94;4993525;28;20233;-18
2023/02/16 04:06:13;;;;;;;0.80;0.80;;;-0.50;71.00;;;-1.03;59.50;95779.94;4993215;28;20234;-18
2023/02/16 04:08:40;;;;;;;0.90;0.90;;;-0.60;71.00;;;-1.06;59.31;95771.59;4993554;28;20198;-18
2023/02/16 04:13:53;;;;;;;0.90;0.90;;;-0.60;71.00;;;-1.08;59.65;95765.75;4993187;28;20178;-18
2023/02/16 04:16:20;;;;;;;0.90;0.90;;;-0.70;70.90;;;-1.10;59.57;95770.97;4993218;28;20190;-18
2023/02/16 04:18:47;;;;;;;0.90;0.90;;;-0.70;71.00;;;-1.11;59.63;95774.50;4992593;28;20280;-19
2023/02/16 04:21:14;;;;;;;0.90;0.90;;;-0.70;71.00;;;-1.16;59.11;95772.19;4993435;28;20198;-19
2023/02/16 04:23:42;;;;;;;0.90;0.90;;;-0.70;71.00;;;-1.18;59.38;95760.34;4992952;28;20634;-19
2023/02/16 04:26:08;;;;;;;0.70;0.70;;;-0.70;71.00;;;-1.20;59.17;95759.63;4993093;28;20194;-18
2023/02/16 04:28:35;;;;;;;0.90;0.90;;;-0.70;70.90;;;-1.21;59.67;95755.38;4993401;28;20200;-18
2023/02/16 04:31:02;;;;;;;0.80;0.80;;;-0.70;71.00;;;-1.22;59.92;95762.31;4993543;28;20618;-18
2023/02/16 04:33:30;;;;;;;0.90;0.90;;;-0.80;71.00;;;-1.22;59.47;95764.03;4992827;28;20289;-18
2023/02/16 04:35:57;;;;;;;0.90;0.90;;;-0.80;71.10;;;-1.26;60.40;95760.84;4993070;28;20194;-18
2023/02/16 04:38:24;;;;;;;0.80;0.80;;;-0.70;71.40;;;-1.27;60.35;95755.78;4993037;28;20190;-18
2023/02/16 04:40:52;;;;;;;0.80;0.80;;;-0.80;71.40;;;-1.26;60.17;95754.88;4993042;28;20731;-18
2023/02/16 04:43:18;;;;;;;0.90;0.90;;;-0.80;71.50;;;-1.27;60.73;95748.88;4992687;28;20191;-19
2023/02/16 04:45:46;;;;;;;0.80;0.80;;;-0.80;71.60;;;-1.27;60.16;95750.63;4992793;28;20648;-19
2023/02/16 04:48:12;;;;;;;0.90;0.90;;;-0.80;71.50;;;-1.25;60.03;95748.81;4992947;28;20191;-19
2023/02/16 04:50:39;;;;;;;0.80;0.80;;;-0.80;71.50;;;-1.27;60.70;95750.63;4992931;28;20222;-19
2023/02/16 04:53:06;;;;;;;0.90;0.90;;;-0.80;71.60;;;-1.26;60.41;95754.88;4992705;28;20244;-18
2023/02/16 04:55:34;;;;;;;0.90;0.90;;;-0.80;71.70;;;-1.25;60.61;95753.94;4992550;28;20205;-18
2023/02/16 04:58:01;;;;;;;0.90;0.90;;;-0.80;71.70;;;-1.26;60.62;95754.88;4993033;28;20194;-19
2023/02/16 05:00:28;;;;;;;0.90;0.90;;;-0.80;71.70;;;-1.24;60.19;95750.47;4992532;28;20263;-19
2023/02/16 05:02:56;;;;;;;0.90;0.90;;;-0.80;72.60;;;-1.27;60.56;95745.50;4992613;28;20202;-19
2023/02/16 05:05:23;;;;;;;0.90;0.90;;;-0.80;71.80;;;-1.28;60.84;95744.69;4992336;28;20556;-18
2023/02/16 05:07:50;;;;;;;0.80;0.80;;;-0.80;71.70;;;-1.27;60.23;95751.44;4994099;28;20624;-18
2023/02/16 05:10:17;;;;;;;0.98;0.98;;;-0.80;71.70;;;-1.27;60.14;95748.06;4996282;28;20232;-18
2023/02/16 05:15:29;;;;;;;0.90;0.90;;;-0.80;71.60;;;-1.29;59.93;95761.03;4995931;28;20182;-19
2023/02/16 05:17:56;;;;;;;0.90;0.90;;;-0.80;71.50;;;-1.32;59.89;95758.66;4995018;28;20648;-18
2023/02/16 05:21:28;;;;;;;0.90;0.90;;;-0.80;71.40;;;-1.32;60.09;95750.94;4996112;28;20229;-18
2023/02/16 05:23:10;;;;;;;0.90;0.90;;;-0.90;71.30;;;-1.31;60.02;95762.88;4995185;28;20212;-19
2023/02/16 05:25:37;;;;;;;0.90;0.90;;;-0.90;71.40;;;-1.35;59.86;95759.66;4996636;28;20194;-19
2023/02/16 05:28:04;;;;;;;0.90;0.90;;;-0.90;71.30;;;-1.33;59.83;95767.28;4995697;28;20195;-18
2023/02/16 05:30:32;;;;;;;0.90;0.90;;;-0.90;71.30;;;-1.38;59.84;95764.19;4995783;28;20205;-18
2023/02/16 05:32:59;;;;;;;0.90;0.90;;;-0.90;71.40;;;-1.36;59.88;95765.75;4995700;28;20610;-18
2023/02/16 05:35:27;;;;;;;0.90;0.90;;;-0.90;71.40;;;-1.41;60.85;95765.22;4995506;28;20707;-18
2023/02/16 05:37:54;;;;;;;0.90;0.90;;;-0.90;71.70;;;-1.39;60.65;95763.38;4995579;28;20198;-18
2023/02/16 05:40:21;;;;;;;0.90;0.90;;;-0.90;71.70;;;-1.38;60.22;95759.03;4995726;28;20599;-18
2023/02/16 05:42:53;;;;;;;0.90;0.90;;;-0.90;71.70;;;-1.37;60.10;95771.81;4995486;28;20648;-18
2023/02/16 05:45:20;;;;;;;0.90;0.90;;;-0.90;71.70;;;-1.34;60.09;95769.03;4995317;28;20281;-19
2023/02/16 05:47:47;;;;;;;0.88;0.88;;;-0.90;71.60;;;-1.36;59.95;95763.16;4994536;28;20216;-18
2023/02/16 05:50:14;;;;;;;0.90;0.90;;;-0.90;71.50;;;-1.37;59.62;95769.22;4995496;28;20209;-19
2023/02/16 05:52:41;;;;;;;0.90;0.90;;;-0.90;71.40;;;-1.35;59.76;95766.59;4995385;28;20198;-19
2023/02/16 05:55:09;;;;;;;0.90;0.90;;;-0.90;71.40;;;-1.38;59.74;95770.19;4994340;28;20198;-18
2023/02/16 05:57:36;;;;;;;0.80;0.80;;;-0.90;71.50;;;-1.36;59.71;95777.78;4995490;28;20664;-18
2023/02/16 06:00:04;;;;;;;0.80;0.80;;;-0.90;71.50;;;-1.40;59.94;95766.88;4995635;28;20518;-18
2023/02/16 06:02:31;;;;;;;0.80;0.80;;;-0.90;71.50;;;-1.38;59.90;95777.91;4995675;28;20194;-18
2023/02/16 06:04:59;;;;;;;0.90;0.90;;;-0.90;71.60;;;-1.42;60.11;95779.00;4995183;28;20233;-18
2023/02/16 06:07:26;;;;;;;0.93;0.93;;;-0.90;71.70;;;-1.40;60.18;95781.47;4994276;28;20695;-19
2023/02/16 06:09:53;;;;;;;0.90;0.90;;;-0.90;71.70;;;-1.39;59.87;95785.69;4995109;28;20194;-19
2023/02/16 06:12:20;;;;;;;0.80;0.80;;;-0.90;71.70;;;-1.38;60.12;95785.63;4995094;28;20194;-18
2023/02/16 06:14:47;;;;;;;0.80;0.80;;;-0.90;71.70;;;-1.34;59.91;95799.94;4994951;28;20664;-18
2023/02/16 06:17:14;;;;;;;0.90;0.90;;;-0.90;71.70;;;-1.34;60.05;95794.78;4994749;28;20202;-19
2023/02/16 06:19:41;;;;;;;0.90;0.90;;;-0.90;71.80;;;-1.33;60.11;95793.03;4994848;28;20665;-18
2023/02/16 06:22:08;;;;;;;0.80;0.80;;;-0.90;71.80;;;-1.30;60.08;95801.38;4995027;28;20224;-18
2023/02/16 06:24:36;;;;;;;0.90;0.90;;;-0.80;71.90;;;-1.25;60.61;95797.69;4994253;28;20717;-18
2023/02/16 06:27:03;;;;;;;0.90;0.90;;;-0.80;72.10;;;-1.24;60.37;95800.19;4994861;28;20618;-19
2023/02/16 06:29:30;;;;;;;0.77;0.77;;;-0.80;72.10;;;-1.19;60.52;95794.75;4993978;28;20190;-18
2023/02/16 06:31:58;;;;;;;0.90;0.90;;;-0.70;72.30;;;-1.11;60.58;95804.53;4994930;28;20228;-18
2023/02/16 06:34:25;;;;;;;0.70;0.70;;;-0.70;72.20;;;-1.07;60.69;95801.69;4993775;28;20285;-18
2023/02/16 06:36:52;;;;;;;0.90;0.90;;;-0.60;72.50;;;-1.03;60.54;95799.72;4994711;28;20213;-18
2023/02/16 06:39:19;;;;;;;0.90;0.90;;;-0.60;72.60;;;-0.95;61.02;95802.66;4994549;28;20203;-18
2023/02/16 06:41:46;;;;;;;0.70;0.70;;;-0.50;72.60;;;-0.91;60.71;95806.66;4994639;28;20205;-18
2023/02/16 06:44:14;;;;;;;0.90;0.90;;;-0.50;72.70;;;-0.86;60.90;95802.03;4995139;28;20535;-18
2023/02/16 06:46:44;;;;;;;0.70;0.70;;;-0.40;72.80;;;-0.79;61.44;95807.63;4993872;28;20198;-18
2023/02/16 06:49:18;;;;;;;0.90;0.90;;;-0.30;72.90;;;-0.72;61.32;95808.03;4993722;28;20579;-18
2023/02/16 06:51:47;;;;;;;0.90;0.90;;;-0.20;73.10;;;-0.63;61.17;95810.03;4993696;28;20178;-19
2023/02/16 06:54:15;;;;;;;0.85;0.85;;;-0.20;73.00;;;-0.57;61.16;95807.03;4994776;28;20520;-19
2023/02/16 06:56:42;;;;;;;0.70;0.70;;;-0.10;73.10;;;-0.49;61.25;95807.38;4994490;28;20650;-19
2023/02/16 06:59:11;;;;;;;0.90;0.90;;;0.00;73.20;;;-0.42;61.82;95804.38;4993669;28;20251;-18
2023/02/16 07:01:38;;;;;;;0.70;0.70;;;0.00;73.40;;;-0.34;61.53;95820.19;4993525;28;20715;-19
2023/02/16 07:04:05;;;;;;;0.80;0.80;;;0.10;73.50;;;-0.26;61.95;95814.50;4994614;28;20239;-19
2023/02/16 07:06:32;;;;;;;0.90;0.90;;;0.20;73.50;;;-0.14;61.99;95818.81;4994131;28;20237;-18
2023/02/16 07:08:59;;;;;;;0.70;0.70;;;0.30;73.70;;;-0.04;61.60;95819.88;4994474;28;20194;-18
2023/02/16 07:11:26;;;;;;;0.80;0.80;;;0.40;73.80;;;0.03;61.65;95809.13;4994205;28;20198;-19
2023/02/16 07:13:53;;;;;;;0.77;0.77;;;0.50;73.90;;;0.13;61.72;95808.38;4994413;28;20319;-18
2023/02/16 07:16:20;;;;;;;0.88;0.88;;;0.50;73.90;;;0.26;61.69;95821.28;4993971;28;20202;-19
2023/02/16 07:18:48;;;;;;;0.90;0.90;;;0.60;74.00;;;0.35;62.12;95813.84;4994125;28;20681;-18
2023/02/16 07:21:15;;;;;;;0.80;0.80;;;0.80;74.30;;;0.43;62.06;95811.56;4994082;28;20229;-19
2023/02/16 07:23:42;;;;;;;0.70;0.70;;;0.90;74.40;;;0.56;62.27;95816.66;4994251;28;20198;-18
2023/02/16 07:26:09;;;;;;;0.80;0.80;;;1.00;75.20;;;0.67;62.39;95821.09;4994089;28;20529;-18
2023/02/16 07:28:37;;;;;;;0.70;0.70;;;1.10;74.50;;;0.75;62.31;95811.84;4993815;28;20666;-19
2023/02/16 07:31:09;;;;;;;0.80;0.80;;;1.20;74.60;;;0.86;62.52;95802.53;4993102;28;20199;-19
2023/02/16 07:33:37;;;;;;;0.85;0.85;;;1.30;74.70;;;0.94;62.79;95811.38;4994138;28;20182;-19
2023/02/16 07:36:07;;;;;;;0.70;0.70;;;1.40;74.80;;;1.07;62.62;95813.88;4992844;28;20568;-18
2023/02/16 07:38:34;;;;;;;0.70;0.70;;;1.50;74.80;;;1.19;62.67;95816.53;4994251;28;20190;-19
2023/02/16 07:41:02;;;;;;;0.70;0.70;;;1.60;74.90;;;1.28;62.87;95816.69;4993875;28;20707;-18
2023/02/16 07:43:33;;;;;;;0.90;0.90;;;1.80;75.00;;;1.38;62.73;95811.66;4994002;28;20199;-19
2023/02/16 07:46:01;;;;;;;0.70;0.70;;;1.90;75.00;;;1.49;62.76;95810.03;4993478;28;20190;-19
2023/02/16 07:48:28;;;;;;;0.80;0.80;;;2.00;75.10;;;1.59;62.78;95804.06;4993646;28;20205;-19
2023/02/16 07:50:55;;;;;;;0.80;0.80;;;2.10;75.30;;;1.72;62.72;95808.34;4993592;28;20271;-18
2023/02/16 07:53:22;;;;;;;0.80;0.80;;;2.20;75.30;;;1.84;62.87;95814.34;4993543;28;20524;-19
2023/02/16 07:55:48;;;;;;;0.70;0.70;;;2.30;75.40;;;1.96;63.30;95812.63;4993505;28;20515;-19
2023/02/16 07:58:26;;;;;;;0.70;0.70;;;2.40;75.40;;;2.07;63.18;95810.03;4993725;28;20210;-19
2023/02/16 08:01:13;;;;;;;0.80;0.80;;;2.50;75.50;;;2.21;63.24;95812.38;4993401;28;20208;-18
2023/02/16 08:03:42;;;;;;;0.80;0.80;;;2.70;75.80;;;2.30;63.99;95808.25;4993718;28;20273;-19
2023/02/16 08:06:09;;;;;;;0.82;0.82;;;2.80;75.70;;;2.40;64.33;95803.19;4993012;28;20709;-19
2023/02/16 08:08:37;;;;;;;0.82;0.82;;;2.90;75.90;;;2.58;64.56;95803.53;4993582;28;20198;-20
2023/02/16 08:11:17;;;;;;;0.60;0.60;;;3.00;76.10;;;2.73;64.55;95804.09;4993284;28;20622;-19
2023/02/16 08:13:45;;;;;;;0.80;0.80;;;3.10;76.30;;;2.89;65.13;95808.88;4993399;28;20598;-18
2023/02/16 08:16:19;;;;;;;0.60;0.60;;;3.30;76.40;;;3.04;64.89;95802.47;4993175;28;20198;-20
2023/02/16 08:18:47;;;;;;;0.80;0.80;;;3.40;76.50;;;3.25;64.87;95803.44;4993533;28;20573;-19
2023/02/16 08:21:18;;;;;;;0.80;0.80;;;3.60;76.60;;;3.41;64.77;95805.66;4993128;28;20702;-19
2023/02/16 08:23:56;;;;;;;0.90;0.90;;;3.70;76.60;;;3.59;63.91;95801.53;4992411;28;20179;-19
2023/02/16 08:26:27;;;;;;;0.80;0.80;;;3.80;76.60;;;3.78;63.92;95807.78;4992943;28;20678;-19
2023/02/16 08:28:57;;;;;;;0.68;0.68;;;4.00;76.70;;;3.96;62.03;95802.84;4993304;28;20171;-19
2023/02/16 08:31:30;;;;;;;0.80;0.80;;;4.20;76.30;;;4.15;62.55;95804.69;4993025;28;20226;-18
2023/02/16 08:33:59;;;;;;;0.80;0.80;;;4.30;76.40;;;4.34;62.09;95801.38;4992450;28;20207;-18
2023/02/16 08:36:33;;;;;;;0.70;0.70;;;4.40;76.30;;;4.54;61.52;95806.63;4992808;28;20225;-18
2023/02/16 08:39:04;;;;;;;0.80;0.80;;;4.60;76.30;;;4.70;60.27;95801.78;4992300;28;20575;-19
2023/02/16 08:41:34;;;;;;;0.70;0.70;;;4.70;75.90;;;4.86;59.31;95798.66;4992551;28;20202;-19
2023/02/16 08:44:04;;;;;;;0.80;0.80;;;4.90;75.30;;;5.04;58.24;95792.78;4992938;28;20251;-19
2023/02/16 08:46:33;;;;;;;0.70;0.70;;;5.10;74.60;;;5.24;56.68;95796.22;4992622;28;20205;-19
2023/02/16 08:49:00;;;;;;;0.80;0.80;;;5.30;73.60;;;5.50;55.67;95806.88;4991787;28;20529;-20
2023/02/16 08:51:33;;;;;;;0.70;0.70;;;5.50;73.20;;;5.74;54.28;95800.44;4992773;28;20230;-19
2023/02/16 08:54:03;;;;;;;0.70;0.70;;;5.70;72.80;;;5.95;53.52;95795.03;4992778;28;20269;-19
2023/02/16 08:56:33;;;;;;;0.60;0.60;;;5.90;71.30;;;6.24;51.46;95794.16;4992686;28;20190;-19
2023/02/16 08:59:00;;;;;;;0.60;0.60;;;6.10;70.50;;;6.50;51.37;95798.72;4992771;28;20201;-19
2023/02/16 09:01:27;;;;;;;0.60;0.60;;;6.40;70.40;;;6.76;50.98;95798.03;4992531;28;20534;-18
2023/02/16 09:03:54;;;;;;;0.60;0.60;;;6.60;69.80;;;7.05;50.54;95800.47;4992632;28;20232;-19
2023/02/16 09:06:22;;;;;;;0.70;0.70;;;6.90;69.20;;;7.27;49.22;95791.38;4992237;28;20230;-19
2023/02/16 09:08:55;;;;;;;0.60;0.60;;;7.20;68.20;;;7.49;48.00;95781.44;4992529;28;20202;-19
2023/02/16 09:11:23;;;;;;;0.70;0.70;;;7.40;67.50;;;7.72;46.67;95784.41;4992815;28;20517;-19
2023/02/16 09:13:50;;;;;;;0.60;0.60;;;7.60;66.80;;;7.95;46.76;95787.34;4992495;28;20221;-19
2023/02/16 09:16:21;;;;;;;0.70;0.70;;;7.90;66.70;;;8.13;46.32;95781.22;4992314;28;20208;-19
2023/02/16 09:18:49;;;;;;;0.60;0.60;;;8.10;66.10;;;8.32;46.84;95781.03;4992578;28;20534;-18
2023/02/16 09:21:24;;;;;;;0.60;0.60;;;8.30;66.30;;;8.51;47.53;95784.41;4992689;28;20537;-19
2023/02/16 09:23:54;;;;;;;0.60;0.60;;;8.50;66.40;;;8.67;46.19;95795.88;4992941;28;20190;-19
2023/02/16 09:26:23;;;;;;;0.80;0.80;;;8.70;65.60;;;8.83;46.87;95777.63;4991318;28;20273;-19
2023/02/16 09:28:52;;;;;;;0.70;0.70;;;8.90;65.90;;;8.96;44.55;95788.47;4992465;28;20197;-19
2023/02/16 09:31:32;;;;;;;0.70;0.70;;;9.10;64.70;;;9.13;44.59;95791.13;4991419;28;20515;-19
2023/02/16 09:34:08;;;;;;;0.80;0.80;;;9.30;64.60;;;9.24;43.71;95788.19;4992529;28;20644;-19
2023/02/16 09:36:37;;;;;;;0.60;0.60;;;9.40;63.30;;;9.39;44.44;95788.38;4991564;28;20190;-19
2023/02/16 09:39:04;;;;;;;0.80;0.80;;;9.60;64.20;;;9.52;43.25;95787.91;4992174;28;20581;-20
2023/02/16 09:41:56;;;;;;;0.60;0.60;;;9.70;63.20;;;9.69;43.84;95790.50;4992315;28;20217;-19
2023/02/16 09:44:32;;;;;;;0.70;0.70;;;9.90;63.70;;;9.85;43.33;95789.66;4991680;28;20284;-19
2023/02/16 09:47:05;;;;;;;0.80;0.80;;;10.00;62.30;;;9.99;43.54;95782.94;4992003;28;20178;-19
2023/02/16 09:49:42;;;;;;;0.60;0.60;;;10.20;62.20;;;10.16;44.46;95786.34;4992113;28;20227;-19
2023/02/16 09:52:39;;;;;;;0.70;0.70;;;10.40;62.30;;;10.34;43.99;95786.97;4991506;28;20233;-19
2023/02/16 09:55:19;;;;;;;0.68;0.68;;;10.60;62.60;;;10.51;44.07;95787.75;4995324;28;20188;-19
2023/02/16 09:58:18;;;;;;;0.60;0.60;;;10.70;62.20;;;10.69;43.64;95786.69;4995671;28;20222;-19
2023/02/16 10:00:55;;;;;;;0.70;0.70;;;11.00;62.60;;;10.83;41.68;95779.94;4994393;28;20224;-19
2023/02/16 10:03:27;;;;;;;0.75;0.75;;;11.10;60.30;;;10.98;41.74;95786.06;4995319;28;20185;-19
2023/02/16 10:06:13;;;;;;;0.70;0.70;;;11.30;60.50;;;11.19;42.75;95784.63;4994118;28;20225;-19
2023/02/16 10:08:49;;;;;;;0.80;0.80;;;11.40;61.40;;;11.32;42.30;95771.75;4995199;28;20185;-18
2023/02/16 10:11:45;;;;;;;0.60;0.60;;;11.60;60.60;;;11.52;42.67;95781.78;4995241;28;20238;-19
2023/02/16 10:14:30;;;;;;;0.65;0.65;;;11.70;60.80;;;11.68;40.87;95780.81;4995176;28;20197;-19
2023/02/16 10:17:15;;;;;;;0.60;0.60;;;11.90;60.10;;;11.80;40.81;95776.81;4995070;28;20185;-19
2023/02/16 10:20:05;;;;;;;0.63;0.63;;;12.10;59.50;;;12.00;41.47;95771.88;4995306;28;20271;-19
2023/02/16 10:23:15;;;;;;;0.60;0.60;;;12.20;59.20;;;12.20;42.69;95773.16;4995501;28;20200;-18
2023/02/16 10:26:42;;;;;;;0.70;0.70;;;12.40;60.30;;;12.32;40.60;95771.72;4994781;28;20201;-18
2023/02/16 10:29:15;;;;;;;0.70;0.70;;;12.60;59.10;;;12.42;38.75;95777.50;5035900;28;20262;-18
2023/02/16 10:31:55;;;;;;;0.60;0.60;;;12.80;57.10;;;12.51;38.03;95767.69;5019510;28;20509;-18
2023/02/16 10:35:01;;;;;;;0.60;0.60;;;12.90;57.20;;;12.62;38.96;95754.09;5002573;28;20220;-18
2023/02/16 10:37:55;;;;;;;0.75;0.75;;;12.90;57.20;;;12.81;40.43;95759.78;4994850;28;20197;-18
2023/02/16 10:40:37;;;;;;;0.60;0.60;;;13.00;58.40;;;12.93;40.96;95755.66;4994676;28;20606;-18
2023/02/16 10:43:44;;;;;;;0.50;0.50;;;13.20;58.50;;;13.03;39.81;95750.09;4994993;28;20174;-18
2023/02/16 10:46:21;;;;;;;0.60;0.60;;;13.30;57.80;;;13.09;38.50;95751.19;4994651;28;20593;-18
2023/02/16 10:48:53;;;;;;;0.60;0.60;;;13.50;56.70;;;13.19;40.06;95742.97;4994651;28;20581;-18
2023/02/16 10:51:27;;;;;;;0.80;0.80;;;13.60;57.90;;;13.28;39.80;95737.41;4994834;28;20598;-18
2023/02/16 10:54:16;;;;;;;0.70;0.70;;;13.60;57.90;;;13.41;40.04;95734.06;4993733;28;20223;-18
2023/02/16 10:57:25;;;;;;;0.60;0.60;;;13.80;58.00;;;13.51;39.08;95736.41;4993648;28;20186;-18
2023/02/16 10:59:53;;;;;;;0.60;0.60;;;13.90;58.20;;;13.59;39.44;95724.91;4999372;28;20213;-18
2023/02/16 11:02:37;;;;;;;0.60;0.60;;;14.00;57.60;;;13.70;37.87;95720.94;4993298;28;20233;-18
2023/02/16 11:05:35;;;;;;;0.80;0.80;;;14.00;55.70;;;13.78;36.99;95720.81;4993552;28;20170;-18
2023/02/16 11:08:03;;;;;;;0.70;0.70;;;14.10;56.30;;;13.84;35.23;95719.22;4994704;28;20189;-18
2023/02/16 11:10:38;;;;;;;0.60;0.60;;;14.20;54.00;;;13.92;37.89;95725.16;4993324;28;20205;-18
2023/02/16 11:13:15;;;;;;;0.70;0.70;;;14.30;55.90;;;13.98;37.31;95723.56;4994392;28;20186;-18
2023/02/16 11:15:42;;;;;;;0.60;0.60;;;14.40;55.40;;;14.02;36.57;95727.44;4993640;28;20191;-19
2023/02/16 11:18:42;;;;;;;0.75;0.75;;;14.50;54.80;;;14.08;36.39;95725.88;4993267;28;20215;-19
2023/02/16 11:21:11;;;;;;;0.50;0.50;;;14.50;55.00;;;14.07;34.23;95719.78;4993444;28;20221;-19
2023/02/16 11:23:41;;;;;;;0.50;0.50;;;14.60;52.20;;;14.07;34.39;95708.41;4994057;28;20525;-18
2023/02/16 11:26:10;;;;;;;0.75;0.75;;;14.50;52.40;;;14.04;34.49;95706.97;4994043;28;20205;-18
2023/02/16 11:28:49;;;;;;;0.70;0.70;;;14.50;52.40;;;14.04;36.09;95704.34;4993932;28;20650;-19
2023/02/16 11:31:38;;;;;;;0.70;0.70;;;14.40;53.90;;;14.10;34.17;95713.31;4994487;28;20221;-18
2023/02/16 11:34:32;;;;;;;0.52;0.52;;;14.50;53.20;;;14.17;32.92;95714.16;4977520;28;20178;-18